Westerville, OH

9:45 AM EDT on April 25, 2015 (GMT -0400)
Ohio State University | | Change Station
CLOSE
Current Station
Airport
Location: Ohio State University,
Elevation: 906 ft
Nearby Weather Stations

Elev 906 ft 40.08 °N, 83.08 °W | Updated 52 minutes ago

Overcast
Overcast
45 °F
Feels Like 38 °F
N
16
Wind Variable Wind from East
Gusts 21 mph

Today
High -- | Low -- °F
--% Chance of Precip.
Yesterday
High -- | Low -- °F
Precip. -- in
6:39 AM 8:20 PM
Waxing Crescent, 46% visible
Pressure 29.87 in
Visibility 10.0 miles
Clouds Overcast 7000 ft
Windchill 38 °F
Dew Point 25 °F
Humidity 46%
Rainfall 0.00 in
Snow Depth Not available.
UV 1 out of 12
Pollen 10.50 out of 12
Air Quality Not available.
Flu Activity Regional
METAR KOSU 251253Z 10014G18KT 10SM OVC070 07/M04 A2986 RMK AO2 SLP113 T00721039

More Conditions Fewer Conditions

Pressure 29.87 in
Visibility 10.0 miles
Clouds Overcast 7000 ft
Windchill 38 °F
Dew Point 25 °F
Humidity 46%
Rainfall 0.00 in
Snow Depth Not available.
UV 1 out of 12
Pollen 10.50 out of 12
Air Quality Not available.
Flu Activity Regional
METAR KOSU 251253Z 10014G18KT 10SM OVC070 07/M04 A2986 RMK AO2 SLP113 T00721039

More Conditions Fewer Conditions

10-Day Weather Forecast

Almanac

Astronomy

Apr. 25, 2015 Rise Set
Actual Time
Civil Twilight
Nautical Twilight
Astronomical Twilight
Moon
Length of Visible Light
Length of Day
Tomorrow will be .
, % of the Moon is Illuminated

Today's Extremes

State Highs State Lows

Community

WunderPhotos

Upload Photos

1,816,675 photos uploaded!

WunderBlogs® & News

Nearby

Air Quality

  Air Quality AQ Index Pollutant
Not available.

Snow Depth

Station Depth Elevation

Earthquake Activity

City Distance Mag. Time & Date
Minimum magnitude displayed is 2.5.

Coastal Water Temperatures

Place Temperature

Stations

Nearby Weather Stations

Station Location Temp. Windchill Dew Point Humidity Wind Precip. Elev Updated Type